Virgil, South Dakota
Current Conditions -  °F | °C
As of 5:55 AM on Sunday 23 Nov 2014 (Local Time) from KHON Reporting Station
Broken Clouds Broken Clouds  
Wind Chill: 31°   Ceiling: 5000
Heat Index: 38°   Visibility: 10mi
Dew Point: 34°   Wind: 9mph
Humidity: 86%   Direction: 320°NW
Pressure: 29.48"   Gusts: NA
Location:  44.29°N, 98.42°W
Report Text: KHON 231155Z AUTO 32008KT 10SM BKN050 BKN100 03/01 A2948 RMK AO2 SLP993 T00330011 10039 20000 51019
Loading
Personal Weather Stations






























Interactive Weather Map New forecast layout! Learn more

10-Day Weather Forecast

Advertisements
Track Severe Weather on mobile